Terminal Aerodrome Forecast
Issued by NWS

Home | Current Version | Previous Version | Text Only | Print | Product List | Glossary On
Versions: 1 2 3 4 5 6 7 8 9 10 11 12
000
FTUS46 KSEW 161100
TAFBLI
TAF
KBLI 161120Z 1612/1712 21005KT P6SM SCT120 BKN200
     FM161700 21007KT P6SM SCT015 BKN120
     FM161900 22007KT P6SM SCT040 BKN120=

USA.gov is the U.S. government's official web portal to all federal, state and local government web resources and services.